Home > Products > Valid Products > TAF

000
FTUS43 KGID 072337
TAFGRI
TAF
KGRI 072337Z 0800/0824 32025G35KT P6SM BKN060
     FM080300 33020G30KT P6SM BKN035 WS020/33055KT
     FM081400 33025G35KT P6SM SCT035
     FM082000 33020G28KT P6SM SCT250=



000
FTUS43 KGID 071756
TAFGRI
TAF
KGRI 071756Z 0718/0818 31022G31KT P6SM SCT100
     FM072000 31027G38KT P6SM SCT100
     FM080000 31021G31KT P6SM BKN060
     FM080300 32022G32KT P6SM SCT025 BKN035
     FM081500 33025G35KT P6SM SCT025 BKN040=



000
FTUS43 KGID 071756
TAFGRI
TAF
KGRI 071756Z 0718/0818 31022G31KT P6SM SCT100
     FM072000 31027G38KT P6SM SCT100
     FM080000 31021G31KT P6SM BKN060
     FM080300 32022G32KT P6SM SCT025 BKN035
     FM081500 33025G35KT P6SM SCT025 BKN040=



000
FTUS43 KGID 071756
TAFGRI
TAF
KGRI 071756Z 0718/0818 31022G31KT P6SM SCT100
     FM072000 31027G38KT P6SM SCT100
     FM080000 31021G31KT P6SM BKN060
     FM080300 32022G32KT P6SM SCT025 BKN035
     FM081500 33025G35KT P6SM SCT025 BKN040=



000
FTUS43 KGID 071435 AAC
TAFGRI
TAF AMD
KGRI 071435Z 0715/0812 30015KT P6SM SCT100 WS015/32040KT
     FM071800 30022G32KT P6SM SCT100
     FM080100 32022G34KT P6SM BKN110
     FM080400 32022G35KT P6SM SCT090=



000
FTUS43 KGID 071435 AAC
TAFGRI
TAF AMD
KGRI 071435Z 0715/0812 30015KT P6SM SCT100 WS015/32040KT
     FM071800 30022G32KT P6SM SCT100
     FM080100 32022G34KT P6SM BKN110
     FM080400 32022G35KT P6SM SCT090=



000
FTUS43 KGID 071141 AAB
TAFGRI
TAF AMD
KGRI 071141Z 0712/0812 30012G21KT P6SM SCT200 WS020/33040KT
     FM071500 30020G31KT P6SM SKC
     FM080100 32022G34KT P6SM BKN110
     FM080400 32022G35KT P6SM SCT090=



000
FTUS43 KGID 071141 AAB
TAFGRI
TAF AMD
KGRI 071141Z 0712/0812 30012G21KT P6SM SCT200 WS020/33040KT
     FM071500 30020G31KT P6SM SKC
     FM080100 32022G34KT P6SM BKN110
     FM080400 32022G35KT P6SM SCT090=



000
FTUS43 KGID 071140
TAFGRI
TAF
KGRI 071140Z 0712/0812 30012G23KT P6SM SCT200 WS020/33040KT
     FM071500 30020G31KT P6SM SKC
     FM080100 32022G34KT P6SM BKN110
     FM080400 32022G35KT P6SM SCT090=



000
FTUS43 KGID 071140 AAA
TAFGRI
TAF AMD
KGRI 071140Z 0712/0812 30014KT P6SM SCT200 WS020/33040KT
     FM071500 30020G31KT P6SM SKC
     FM080100 32022G34KT P6SM BKN110
     FM080400 32022G35KT P6SM SCT090=



000
FTUS43 KGID 071140 AAA
TAFGRI
TAF AMD
KGRI 071140Z 0712/0812 30014KT P6SM SCT200 WS020/33040KT
     FM071500 30020G31KT P6SM SKC
     FM080100 32022G34KT P6SM BKN110
     FM080400 32022G35KT P6SM SCT090=



000
FTUS43 KGID 071140
TAFGRI
TAF
KGRI 071140Z 0712/0812 30012G23KT P6SM SCT200 WS020/33040KT
     FM071500 30020G31KT P6SM SKC
     FM080100 32022G34KT P6SM BKN110
     FM080400 32022G35KT P6SM SCT090=



000
FTUS43 KGID 070539
TAFGRI
TAF
KGRI 070539Z 0706/0806 30011KT P6SM SCT250 WS020/35040KT
     FM071000 29012KT P6SM BKN250 WS020/32040KT
     FM071500 29021G30KT P6SM SCT250
     FM071800 31025G36KT 6SM BLSN SCT250
     FM080000 32025G35KT 6SM BLSN BKN090=



000
FTUS43 KGID 070539
TAFGRI
TAF
KGRI 070539Z 0706/0806 30011KT P6SM SCT250 WS020/35040KT
     FM071000 29012KT P6SM BKN250 WS020/32040KT
     FM071500 29021G30KT P6SM SCT250
     FM071800 31025G36KT 6SM BLSN SCT250
     FM080000 32025G35KT 6SM BLSN BKN090=



000
FTUS43 KGID 070147 AAA
TAFGRI
TAF AMD
KGRI 070147Z 0702/0724 24014G20KT P6SM BKN200
     FM070300 27014KT P6SM SCT250
     FM070500 29011KT P6SM SCT250 WS020/33040KT
     FM071000 29012KT P6SM BKN200 WS020/32040KT
     FM071500 30023G34KT P6SM SCT250
     FM072300 32024G35KT P6SM BKN030=



000
FTUS43 KGID 070147 AAA
TAFGRI
TAF AMD
KGRI 070147Z 0702/0724 24014G20KT P6SM BKN200
     FM070300 27014KT P6SM SCT250
     FM070500 29011KT P6SM SCT250 WS020/33040KT
     FM071000 29012KT P6SM BKN200 WS020/32040KT
     FM071500 30023G34KT P6SM SCT250
     FM072300 32024G35KT P6SM BKN030=



000
FTUS43 KGID 070147 AAA
TAFGRI
TAF AMD
KGRI 070147Z 0702/0724 24014G20KT P6SM BKN200
     FM070300 27014KT P6SM SCT250
     FM070500 29011KT P6SM SCT250 WS020/33040KT
     FM071000 29012KT P6SM BKN200 WS020/32040KT
     FM071500 30023G34KT P6SM SCT250
     FM072300 32024G35KT P6SM BKN030=



000
FTUS43 KGID 062321
TAFGRI
TAF
KGRI 062321Z 0700/0724 24013KT P6SM BKN200
     FM070300 27011KT P6SM SCT250
     FM070500 29011KT P6SM SCT250 WS020/33040KT
     FM071000 29012KT P6SM BKN200 WS020/32040KT
     FM071500 30023G34KT P6SM SCT250
     FM072300 32024G35KT P6SM BKN030=



000
FTUS43 KGID 062321
TAFGRI
TAF
KGRI 062321Z 0700/0724 24013KT P6SM BKN200
     FM070300 27011KT P6SM SCT250
     FM070500 29011KT P6SM SCT250 WS020/33040KT
     FM071000 29012KT P6SM BKN200 WS020/32040KT
     FM071500 30023G34KT P6SM SCT250
     FM072300 32024G35KT P6SM BKN030=



000
FTUS43 KGID 062321
TAFGRI
TAF
KGRI 062321Z 0700/0724 24013KT P6SM BKN200
     FM070300 27011KT P6SM SCT250
     FM070500 29011KT P6SM SCT250 WS020/33040KT
     FM071000 29012KT P6SM BKN200 WS020/32040KT
     FM071500 30023G34KT P6SM SCT250
     FM072300 32024G35KT P6SM BKN030=



000
FTUS43 KGID 061752
TAFGRI
TAF
KGRI 061752Z 0618/0718 24012KT P6SM SCT200
     FM070300 28010KT P6SM SCT100
     FM070600 30011KT P6SM BKN100 WS015/33040KT
     FM071200 29014KT P6SM SCT100 WS015/33040KT
     FM071500 29020G29KT P6SM FEW100=



000
FTUS43 KGID 061752
TAFGRI
TAF
KGRI 061752Z 0618/0718 24012KT P6SM SCT200
     FM070300 28010KT P6SM SCT100
     FM070600 30011KT P6SM BKN100 WS015/33040KT
     FM071200 29014KT P6SM SCT100 WS015/33040KT
     FM071500 29020G29KT P6SM FEW100=



000
FTUS43 KGID 061752
TAFGRI
TAF
KGRI 061752Z 0618/0718 24012KT P6SM SCT200
     FM070300 28010KT P6SM SCT100
     FM070600 30011KT P6SM BKN100 WS015/33040KT
     FM071200 29014KT P6SM SCT100 WS015/33040KT
     FM071500 29020G29KT P6SM FEW100=



000
FTUS43 KGID 061120
TAFGRI
TAF
KGRI 061120Z 0612/0712 24005KT P6SM FEW200
     FM061700 23009KT P6SM SKC
     FM070300 27008KT P6SM SCT200
     FM070600 31009KT P6SM SCT250 WS020/34035KT=



000
FTUS43 KGID 061120
TAFGRI
TAF
KGRI 061120Z 0612/0712 24005KT P6SM FEW200
     FM061700 23009KT P6SM SKC
     FM070300 27008KT P6SM SCT200
     FM070600 31009KT P6SM SCT250 WS020/34035KT=



000
FTUS43 KGID 061120
TAFGRI
TAF
KGRI 061120Z 0612/0712 24005KT P6SM FEW200
     FM061700 23009KT P6SM SKC
     FM070300 27008KT P6SM SCT200
     FM070600 31009KT P6SM SCT250 WS020/34035KT=



000
FTUS43 KGID 060542
TAFGRI
TAF
KGRI 060542Z 0606/0706 29006KT P6SM FEW080
      TEMPO 0606/0607 OVC025
     FM060900 26006KT P6SM SCT200
     FM061700 23010KT P6SM SKC
     FM070200 26010KT P6SM SCT200
     FM070500 29010KT P6SM SCT250 WS005/34010KT=



000
FTUS43 KGID 060542
TAFGRI
TAF
KGRI 060542Z 0606/0706 29006KT P6SM FEW080
      TEMPO 0606/0607 OVC025
     FM060900 26006KT P6SM SCT200
     FM061700 23010KT P6SM SKC
     FM070200 26010KT P6SM SCT200
     FM070500 29010KT P6SM SCT250 WS005/34010KT=



000
FTUS43 KGID 060542
TAFGRI
TAF
KGRI 060542Z 0606/0706 29006KT P6SM FEW080
      TEMPO 0606/0607 OVC025
     FM060900 26006KT P6SM SCT200
     FM061700 23010KT P6SM SKC
     FM070200 26010KT P6SM SCT200
     FM070500 29010KT P6SM SCT250 WS005/34010KT=



000
FTUS43 KGID 052337
TAFGRI
TAF
KGRI 052337Z 0600/0624 30010KT P6SM BKN080
     FM060400 31008KT P6SM SCT080
     FM061200 25006KT P6SM SCT250
     FM061700 23010G16KT P6SM SCT250=



000
FTUS43 KGID 052337
TAFGRI
TAF
KGRI 052337Z 0600/0624 30010KT P6SM BKN080
     FM060400 31008KT P6SM SCT080
     FM061200 25006KT P6SM SCT250
     FM061700 23010G16KT P6SM SCT250=



000
FTUS43 KGID 052337
TAFGRI
TAF
KGRI 052337Z 0600/0624 30010KT P6SM BKN080
     FM060400 31008KT P6SM SCT080
     FM061200 25006KT P6SM SCT250
     FM061700 23010G16KT P6SM SCT250=



000
FTUS43 KGID 051720
TAFGRI
TAF
KGRI 051720Z 0518/0618 25010KT P6SM OVC040
     FM052300 30009KT P6SM OVC080
     FM060400 29007KT P6SM SCT250
     FM061000 24008KT P6SM SKC=



000
FTUS43 KGID 051720
TAFGRI
TAF
KGRI 051720Z 0518/0618 25010KT P6SM OVC040
     FM052300 30009KT P6SM OVC080
     FM060400 29007KT P6SM SCT250
     FM061000 24008KT P6SM SKC=



000
FTUS43 KGID 051720
TAFGRI
TAF
KGRI 051720Z 0518/0618 25010KT P6SM OVC040
     FM052300 30009KT P6SM OVC080
     FM060400 29007KT P6SM SCT250
     FM061000 24008KT P6SM SKC=



000
FTUS43 KGID 051605 AAC
TAFGRI
TAF AMD
KGRI 051605Z 0516/0612 22010KT 2SM -SN OVC035
     FM051700 27010KT P6SM OVC080
     FM052300 30009KT P6SM OVC035
     FM061000 26006KT P6SM SKC=



000
FTUS43 KGID 051404 AAB
TAFGRI
TAF AMD
KGRI 051404Z 0514/0612 20007KT 3SM -SN OVC040
      TEMPO 0514/0515 1SM -SN BKN025
     FM051500 24010KT 5SM -SN OVC040
     FM051700 27010KT P6SM OVC080
     FM052300 30009KT P6SM OVC035
     FM061000 26006KT P6SM SKC=



000
FTUS43 KGID 051228 AAA
TAFGRI
TAF AMD
KGRI 051228Z 0512/0612 20007KT 5SM -SN OVC040
      TEMPO 0512/0514 2SM -SN
     FM051500 24010KT 5SM -SN OVC040
     FM051700 27010KT P6SM OVC080
     FM052300 30009KT P6SM OVC035
     FM061000 26006KT P6SM SKC=



000
FTUS43 KGID 051228 AAA
TAFGRI
TAF AMD
KGRI 051228Z 0512/0612 20007KT 5SM -SN OVC040
      TEMPO 0512/0514 2SM -SN
     FM051500 24010KT 5SM -SN OVC040
     FM051700 27010KT P6SM OVC080
     FM052300 30009KT P6SM OVC035
     FM061000 26006KT P6SM SKC=



000
FTUS43 KGID 051228 AAA
TAFGRI
TAF AMD
KGRI 051228Z 0512/0612 20007KT 5SM -SN OVC040
      TEMPO 0512/0514 2SM -SN
     FM051500 24010KT 5SM -SN OVC040
     FM051700 27010KT P6SM OVC080
     FM052300 30009KT P6SM OVC035
     FM061000 26006KT P6SM SKC=



000
FTUS43 KGID 051138
TAFGRI
TAF
KGRI 051138Z 0512/0612 20007KT 5SM -SN OVC040
     FM051500 24010KT 5SM -SN OVC040
     FM051700 27010KT P6SM OVC080
     FM052300 30009KT P6SM OVC035
     FM061000 26006KT P6SM SKC=



000
FTUS43 KGID 051138
TAFGRI
TAF
KGRI 051138Z 0512/0612 20007KT 5SM -SN OVC040
     FM051500 24010KT 5SM -SN OVC040
     FM051700 27010KT P6SM OVC080
     FM052300 30009KT P6SM OVC035
     FM061000 26006KT P6SM SKC=



000
FTUS43 KGID 051138
TAFGRI
TAF
KGRI 051138Z 0512/0612 20007KT 5SM -SN OVC040
     FM051500 24010KT 5SM -SN OVC040
     FM051700 27010KT P6SM OVC080
     FM052300 30009KT P6SM OVC035
     FM061000 26006KT P6SM SKC=



000
FTUS43 KGID 050520
TAFGRI
TAF
KGRI 050520Z 0506/0606 VRB04KT P6SM BKN140
     FM051100 20006KT P6SM -SN OVC035
     FM051700 27008KT P6SM OVC050
     FM052300 30010KT P6SM BKN050=



000
FTUS43 KGID 050520
TAFGRI
TAF
KGRI 050520Z 0506/0606 VRB04KT P6SM BKN140
     FM051100 20006KT P6SM -SN OVC035
     FM051700 27008KT P6SM OVC050
     FM052300 30010KT P6SM BKN050=



    US Dept of Commerce
    National Oceanic and Atmospheric Administration
    National Weather Service
    1325 East West Highway
    Silver Spring, MD 20910
    Page Author: NWS Internet Services Team
Disclaimer
Information Quality
Credits
Glossary
Privacy Policy
Freedom of Information Act (FOIA)
About Us
Career Opportunities